Time;durP1;ratioP1;P1;durP2;ratioP2;P2;SDS_P1;SDS_P2;PMS_P1;PMS_P2;Temp;Humidity;BMP_temperature;BMP_pressure;BME280_temperature;BME280_humidity;BME280_pressure;Samples;Min_cycle;Max_cycle;Signal;HPM_P1;HPM_P2
2022/04/21 00:02:18;;;;;;;1.98;0.80;;;9.30;99.90;;;;;;5021027;28;20037;-76
2022/04/21 00:04:43;;;;;;;2.22;0.80;;;9.30;99.90;;;;;;5036726;28;20052;-77
2022/04/21 00:07:09;;;;;;;1.75;0.90;;;9.30;99.90;;;;;;5038791;28;20786;-76
2022/04/21 00:09:34;;;;;;;2.45;0.73;;;9.20;99.90;;;;;;5015972;28;20045;-77
2022/04/21 00:12:00;;;;;;;2.05;0.80;;;9.20;99.90;;;;;;5038056;28;20026;-76
2022/04/21 00:14:26;;;;;;;1.88;0.60;;;9.20;99.90;;;;;;5038803;28;20393;-77
2022/04/21 00:16:51;;;;;;;1.95;0.50;;;9.10;99.90;;;;;;5038098;28;20389;-76
2022/04/21 00:19:17;;;;;;;1.63;0.60;;;9.10;99.90;;;;;;5020664;28;20508;-76
2022/04/21 00:24:26;;;;;;;2.33;0.70;;;9.10;99.90;;;;;;5042161;28;20421;-75
2022/04/21 00:26:52;;;;;;;2.33;0.90;;;9.00;99.90;;;;;;5023025;28;20033;-76
2022/04/21 00:29:17;;;;;;;2.08;0.70;;;9.00;99.90;;;;;;5022831;28;20120;-77
2022/04/21 00:31:43;;;;;;;1.73;0.60;;;8.90;99.90;;;;;;5020855;28;20082;-76
2022/04/21 00:34:09;;;;;;;1.90;0.70;;;8.90;99.90;;;;;;5038098;28;20548;-77
2022/04/21 00:36:35;;;;;;;2.72;0.70;;;8.80;99.90;;;;;;5013339;28;20032;-76
2022/04/21 00:39:01;;;;;;;3.30;0.73;;;8.80;99.90;;;;;;5037825;28;20079;-76
2022/04/21 00:41:26;;;;;;;2.67;0.80;;;8.80;99.90;;;;;;5037260;28;20029;-76
2022/04/21 00:43:52;;;;;;;2.05;0.80;;;8.80;99.90;;;;;;5053108;28;20039;-76
2022/04/21 00:46:20;;;;;;;1.85;0.80;;;8.80;99.90;;;;;;5037369;28;20028;-76
2022/04/21 00:48:46;;;;;;;3.00;0.80;;;8.80;99.90;;;;;;5038036;28;20098;-76
2022/04/21 00:51:12;;;;;;;1.88;0.88;;;8.80;99.90;;;;;;5038820;28;20032;-76
2022/04/21 00:53:39;;;;;;;1.80;0.80;;;8.80;99.90;;;;;;5038394;28;20033;-76
2022/04/21 00:56:06;;;;;;;2.38;0.70;;;8.80;99.90;;;;;;5032520;28;20407;-76
2022/04/21 00:58:32;;;;;;;1.92;0.70;;;8.80;99.90;;;;;;5014735;28;20037;-77
2022/04/21 01:00:58;;;;;;;2.88;0.75;;;8.90;99.90;;;;;;5035509;28;20029;-75
2022/04/21 01:03:24;;;;;;;1.75;0.70;;;8.80;99.90;;;;;;5035690;28;20552;-76
2022/04/21 01:05:50;;;;;;;2.17;0.93;;;8.90;99.90;;;;;;5036286;28;20040;-75
2022/04/21 01:08:16;;;;;;;2.10;0.90;;;8.80;99.90;;;;;;5038225;28;20037;-75
2022/04/21 01:10:42;;;;;;;1.77;0.90;;;8.90;99.90;;;;;;5029814;28;20048;-76
2022/04/21 01:13:09;;;;;;;2.42;0.93;;;8.90;99.90;;;;;;5052361;28;20025;-76
2022/04/21 01:15:40;;;;;;;2.13;1.08;;;8.90;99.90;;;;;;5021163;28;20067;-76
2022/04/21 01:18:07;;;;;;;1.90;0.88;;;8.90;99.90;;;;;;5035676;28;20029;-77
2022/04/21 01:20:33;;;;;;;2.35;0.70;;;8.90;99.90;;;;;;5037643;28;20040;-76
2022/04/21 01:22:59;;;;;;;2.10;1.02;;;8.90;99.90;;;;;;5019864;28;20029;-76
2022/04/21 01:25:24;;;;;;;2.15;0.90;;;8.90;99.90;;;;;;5036471;28;20025;-76
2022/04/21 01:27:54;;;;;;;4.35;0.90;;;8.80;99.90;;;;;;5036281;28;20025;-76
2022/04/21 01:30:20;;;;;;;2.50;0.93;;;8.80;99.90;;;;;;5014010;28;20041;-76
2022/04/21 01:32:48;;;;;;;2.22;1.00;;;8.80;99.90;;;;;;5035561;28;20033;-76
2022/04/21 01:35:14;;;;;;;1.75;0.82;;;8.80;99.90;;;;;;5035160;28;20033;-76
2022/04/21 01:43:09;;;;;;;1.95;0.75;;;8.70;99.90;;;;;;5052253;28;20036;-76
2022/04/21 01:45:35;;;;;;;2.78;0.60;;;8.80;99.90;;;;;;5037627;28;20033;-76
2022/04/21 01:48:02;;;;;;;1.70;0.80;;;8.70;99.90;;;;;;5035774;28;20044;-75
2022/04/21 01:50:27;;;;;;;2.67;0.60;;;8.70;99.90;;;;;;5036023;28;20043;-76
2022/04/21 01:52:53;;;;;;;1.92;0.70;;;8.60;99.90;;;;;;5037634;28;20041;-76
2022/04/21 01:55:19;;;;;;;1.45;0.77;;;8.60;99.90;;;;;;5035624;28;20052;-76
2022/04/21 01:57:45;;;;;;;2.67;0.60;;;8.60;99.90;;;;;;5020525;28;20041;-76
2022/04/21 02:00:11;;;;;;;1.50;0.60;;;8.60;99.90;;;;;;5022313;28;20029;-76
2022/04/21 02:02:37;;;;;;;1.83;1.00;;;8.60;99.90;;;;;;5016705;28;20129;-76
2022/04/21 02:05:04;;;;;;;2.50;0.80;;;8.50;99.90;;;;;;5024379;28;20028;-76
2022/04/21 02:07:30;;;;;;;3.47;0.95;;;8.50;99.90;;;;;;5030040;28;20412;-75
2022/04/21 02:09:55;;;;;;;1.80;0.75;;;8.50;99.90;;;;;;5055644;28;20041;-76
2022/04/21 02:12:24;;;;;;;1.85;0.70;;;8.50;99.90;;;;;;5019357;28;20725;-76
2022/04/21 02:14:51;;;;;;;3.72;1.27;;;8.50;99.90;;;;;;5017292;28;20064;-76
2022/04/21 02:17:17;;;;;;;1.63;0.80;;;8.50;99.90;;;;;;5041353;28;20543;-76
2022/04/21 02:19:43;;;;;;;2.58;0.68;;;8.50;99.90;;;;;;5039144;28;20028;-76
2022/04/21 02:22:08;;;;;;;2.42;0.82;;;8.50;99.90;;;;;;5023090;28;20028;-76
2022/04/21 02:24:34;;;;;;;2.83;1.13;;;8.50;99.90;;;;;;5023276;28;20032;-76
2022/04/21 02:26:59;;;;;;;2.63;0.90;;;8.50;99.90;;;;;;5039509;28;20021;-76
2022/04/21 02:29:25;;;;;;;2.95;0.80;;;8.40;99.90;;;;;;5039920;28;20782;-76
2022/04/21 02:31:51;;;;;;;1.77;0.70;;;8.40;99.90;;;;;;5040798;28;20048;-76
2022/04/21 02:34:16;;;;;;;2.25;0.90;;;8.40;99.90;;;;;;5039280;28;20025;-76
2022/04/21 02:36:42;;;;;;;1.80;0.70;;;8.40;99.90;;;;;;5033080;28;20048;-76
2022/04/21 02:39:07;;;;;;;1.98;0.93;;;8.40;99.90;;;;;;5022483;28;20090;-76
2022/04/21 02:41:33;;;;;;;1.77;0.60;;;8.40;99.90;;;;;;5040172;28;20053;-76
2022/04/21 02:43:59;;;;;;;1.60;0.70;;;8.40;99.90;;;;;;5035898;28;20412;-75
2022/04/21 02:46:28;;;;;;;1.75;0.70;;;8.40;99.90;;;;;;5022180;28;20440;-76
2022/04/21 02:48:55;;;;;;;2.20;0.88;;;8.30;99.90;;;;;;5021478;28;20145;-76
2022/04/21 02:51:21;;;;;;;1.60;0.60;;;8.30;99.90;;;;;;5033788;28;20025;-76
2022/04/21 02:59:15;;;;;;;1.85;0.70;;;8.20;99.90;;;;;;5033204;28;20045;-76
2022/04/21 03:01:41;;;;;;;2.33;0.63;;;8.20;99.90;;;;;;5038386;28;20029;-76
2022/04/21 03:04:07;;;;;;;1.90;0.77;;;8.30;99.90;;;;;;5021551;28;20070;-76
2022/04/21 03:06:32;;;;;;;2.00;0.70;;;8.10;99.90;;;;;;5022563;28;20052;-76
2022/04/21 03:08:58;;;;;;;2.28;0.70;;;8.10;99.90;;;;;;5039964;28;20033;-76
2022/04/21 03:11:23;;;;;;;1.50;0.60;;;8.10;99.90;;;;;;5030335;28;20413;-76
2022/04/21 03:13:49;;;;;;;2.22;0.80;;;8.00;99.90;;;;;;5032693;28;20036;-75
2022/04/21 03:16:14;;;;;;;2.03;0.65;;;8.00;99.90;;;;;;5045277;28;20256;-76
2022/04/21 03:18:40;;;;;;;2.25;0.60;;;7.90;99.90;;;;;;5039848;28;20056;-76
2022/04/21 03:26:34;;;;;;;2.65;0.75;;;7.80;99.90;;;;;;5039884;28;20083;-76
2022/04/21 03:28:59;;;;;;;1.38;0.65;;;7.80;99.90;;;;;;5038473;28;20553;-76
2022/04/21 03:31:25;;;;;;;2.25;0.82;;;7.80;99.90;;;;;;5037812;28;20033;-76
2022/04/21 03:33:51;;;;;;;2.40;0.60;;;7.70;99.90;;;;;;5023060;28;20021;-76
2022/04/21 03:36:16;;;;;;;1.55;0.68;;;7.70;99.90;;;;;;5039914;28;20025;-77
2022/04/21 03:38:42;;;;;;;3.03;0.82;;;7.70;99.90;;;;;;5038563;28;20029;-76
2022/04/21 03:41:08;;;;;;;2.63;0.90;;;7.60;99.90;;;;;;5039983;28;20033;-76
2022/04/21 03:43:34;;;;;;;1.88;0.80;;;7.50;99.90;;;;;;5039286;28;20044;-76
2022/04/21 03:45:59;;;;;;;1.67;0.70;;;7.50;99.90;;;;;;5038031;28;20041;-76
2022/04/21 03:48:25;;;;;;;2.22;0.95;;;7.50;99.90;;;;;;5033206;28;20040;-76
2022/04/21 03:50:50;;;;;;;2.33;1.00;;;7.50;99.90;;;;;;5040295;28;20041;-76
2022/04/21 03:53:16;;;;;;;1.90;0.70;;;7.40;99.90;;;;;;5021687;28;20017;-76
2022/04/21 03:55:42;;;;;;;2.33;1.00;;;7.40;99.90;;;;;;5037462;28;20064;-76
2022/04/21 03:58:08;;;;;;;2.03;0.85;;;7.40;99.90;;;;;;5036630;28;20036;-76
2022/04/21 04:00:34;;;;;;;2.50;0.80;;;7.30;99.90;;;;;;5038605;28;20029;-76
2022/04/21 04:02:59;;;;;;;2.22;0.90;;;7.20;99.90;;;;;;5054766;28;20032;-76
2022/04/21 04:05:25;;;;;;;1.92;0.80;;;7.20;99.90;;;;;;5037191;28;20037;-76
2022/04/21 04:10:53;;;;;;;3.28;0.80;;;7.10;99.90;;;;;;5053531;28;20085;-76
2022/04/21 04:13:24;;;;;;;2.90;1.45;;;7.00;99.90;;;;;;5022427;28;20500;-75
2022/04/21 04:15:51;;;;;;;2.90;1.15;;;7.10;99.90;;;;;;5035996;28;20036;-76
2022/04/21 04:18:18;;;;;;;2.72;0.90;;;7.00;99.90;;;;;;5038099;28;20151;-76
2022/04/21 04:20:44;;;;;;;3.20;1.10;;;7.00;99.90;;;;;;5037230;28;20094;-76
2022/04/21 04:23:10;;;;;;;2.30;1.00;;;7.00;99.90;;;;;;5038209;28;20025;-76
2022/04/21 04:25:36;;;;;;;2.25;1.15;;;7.00;99.90;;;;;;5033453;28;20025;-75
2022/04/21 04:28:05;;;;;;;2.38;1.10;;;7.00;99.90;;;;;;5037478;28;20040;-76
2022/04/21 04:30:32;;;;;;;3.20;1.65;;;6.90;99.90;;;;;;5038707;28;20393;-76
2022/04/21 04:32:58;;;;;;;2.80;1.02;;;6.90;99.90;;;;;;5037619;28;20096;-77
2022/04/21 04:35:25;;;;;;;3.30;1.73;;;6.80;99.90;;;;;;5039305;28;20125;-76
2022/04/21 04:37:52;;;;;;;3.15;1.45;;;6.80;99.90;;;;;;5040433;28;20043;-76
2022/04/21 04:40:18;;;;;;;2.72;1.55;;;6.70;99.90;;;;;;5036460;28;20061;-76
2022/04/21 04:42:44;;;;;;;3.83;1.90;;;6.60;99.90;;;;;;5036575;28;20037;-77
2022/04/21 04:47:53;;;;;;;3.00;1.67;;;6.50;99.90;;;;;;5038800;28;20463;-76
2022/04/21 04:50:19;;;;;;;2.53;1.40;;;6.50;99.90;;;;;;5036490;28;20043;-76
2022/04/21 04:52:45;;;;;;;2.83;1.30;;;6.50;99.90;;;;;;5013129;28;20029;-76
2022/04/21 04:55:13;;;;;;;5.07;1.17;;;6.50;99.90;;;;;;5042016;28;20057;-76
2022/04/21 04:57:39;;;;;;;3.45;1.13;;;6.50;99.90;;;;;;5053144;28;20124;-76
2022/04/21 05:00:07;;;;;;;2.03;1.10;;;6.50;99.90;;;;;;5019678;28;20112;-76
2022/04/21 05:02:33;;;;;;;4.38;1.48;;;6.50;99.90;;;;;;5019193;28;20052;-76
2022/04/21 05:04:59;;;;;;;2.47;1.08;;;6.50;99.90;;;;;;5036513;28;20032;-76
2022/04/21 05:07:24;;;;;;;2.53;1.48;;;6.50;99.90;;;;;;5021117;28;20592;-76
2022/04/21 05:09:50;;;;;;;3.78;1.38;;;6.50;99.90;;;;;;5036473;28;20033;-76
2022/04/21 05:12:16;;;;;;;4.18;1.90;;;6.50;99.90;;;;;;5052635;28;20112;-77
2022/04/21 05:14:41;;;;;;;6.22;2.67;;;6.40;99.90;;;;;;5030689;28;20032;-76
2022/04/21 05:17:07;;;;;;;5.45;2.63;;;6.50;99.90;;;;;;5038364;28;20425;-76
2022/04/21 05:19:33;;;;;;;4.85;2.20;;;6.50;99.90;;;;;;5013496;28;20052;-77
2022/04/21 05:22:02;;;;;;;5.13;1.67;;;6.50;99.90;;;;;;5022446;28;20559;-76
2022/04/21 05:24:30;;;;;;;3.67;1.80;;;6.60;99.90;;;;;;5034437;28;20075;-76
2022/04/21 05:26:57;;;;;;;4.25;1.65;;;6.70;99.90;;;;;;5035387;28;20485;-76
2022/04/21 05:32:07;;;;;;;3.08;1.15;;;6.80;99.90;;;;;;5035656;28;20116;-76
2022/04/21 05:34:33;;;;;;;2.45;1.10;;;6.90;99.90;;;;;;5029167;28;20029;-76
2022/04/21 05:37:00;;;;;;;2.38;1.00;;;6.90;99.90;;;;;;5021367;28;20025;-76
2022/04/21 05:39:28;;;;;;;4.03;1.90;;;6.90;99.90;;;;;;5028915;28;20040;-76
2022/04/21 05:41:54;;;;;;;2.58;1.30;;;7.10;99.90;;;;;;5000413;28;20533;-76
2022/04/21 05:44:21;;;;;;;1.92;1.02;;;7.10;99.90;;;;;;5035381;28;20286;-76
2022/04/21 05:46:47;;;;;;;2.45;1.50;;;7.20;99.90;;;;;;5036104;28;20036;-76
2022/04/21 05:49:13;;;;;;;2.00;1.13;;;7.20;99.90;;;;;;5036348;28;20036;-76
2022/04/21 05:51:39;;;;;;;3.50;1.05;;;7.30;99.90;;;;;;5037072;28;20589;-76
2022/04/21 05:54:06;;;;;;;2.58;1.05;;;7.30;99.90;;;;;;5019252;28;20029;-76
2022/04/21 05:56:33;;;;;;;2.28;1.02;;;7.50;99.90;;;;;;5053228;28;20487;-76
2022/04/21 05:58:58;;;;;;;4.15;1.30;;;7.60;99.90;;;;;;5012984;28;20048;-76
2022/04/21 06:01:24;;;;;;;2.25;1.20;;;7.60;99.90;;;;;;5036700;28;20029;-76
2022/04/21 06:03:51;;;;;;;3.85;1.20;;;7.60;99.90;;;;;;5018759;28;20033;-76
2022/04/21 06:06:17;;;;;;;3.13;1.55;;;7.70;99.90;;;;;;5036631;28;21846;-77
2022/04/21 06:08:42;;;;;;;1.50;0.77;;;7.80;99.90;;;;;;5036801;28;20037;-75
2022/04/21 06:11:08;;;;;;;2.13;1.00;;;7.90;99.90;;;;;;5013628;28;20124;-77
2022/04/21 06:13:34;;;;;;;1.95;0.93;;;8.00;99.90;;;;;;5036588;28;20053;-77
2022/04/21 06:16:00;;;;;;;2.03;0.80;;;8.10;99.90;;;;;;5037086;28;20112;-76
2022/04/21 06:18:26;;;;;;;1.85;0.75;;;8.10;99.90;;;;;;5035114;28;20118;-76
2022/04/21 06:20:53;;;;;;;2.30;1.17;;;8.30;99.90;;;;;;5034919;28;20056;-76
2022/04/21 06:23:19;;;;;;;2.58;1.15;;;8.40;99.90;;;;;;5019358;28;20207;-76
2022/04/21 06:25:45;;;;;;;2.30;1.00;;;8.60;99.90;;;;;;5035523;28;20029;-76
2022/04/21 06:28:12;;;;;;;3.47;1.63;;;8.70;99.90;;;;;;5036999;28;20081;-76
2022/04/21 06:30:37;;;;;;;2.67;0.98;;;8.90;99.90;;;;;;5033454;28;20047;-76
2022/04/21 06:33:03;;;;;;;2.75;1.48;;;9.10;99.90;;;;;;5012222;28;20033;-76
2022/04/21 06:35:30;;;;;;;3.08;1.00;;;9.20;99.90;;;;;;5019435;28;20036;-76
2022/04/21 06:37:56;;;;;;;2.25;1.38;;;9.40;99.90;;;;;;5035756;28;20040;-76
2022/04/21 06:40:22;;;;;;;4.10;1.10;;;9.50;99.90;;;;;;5035641;28;20048;-76
2022/04/21 06:42:48;;;;;;;3.17;1.08;;;9.80;99.90;;;;;;5035392;28;20378;-76
2022/04/21 06:48:02;;;;;;;2.53;0.77;;;10.20;99.90;;;;;;5056084;28;20029;-77
2022/04/21 06:50:29;;;;;;;2.13;0.90;;;10.40;99.90;;;;;;5039286;28;20060;-76
2022/04/21 06:52:54;;;;;;;1.63;0.80;;;10.50;99.90;;;;;;5034664;28;20326;-77
2022/04/21 06:55:20;;;;;;;1.60;0.75;;;10.80;99.90;;;;;;5038203;28;20036;-77
2022/04/21 06:57:45;;;;;;;1.98;0.90;;;11.00;99.90;;;;;;5055101;28;20033;-76
2022/04/21 07:00:11;;;;;;;3.50;1.15;;;11.00;99.90;;;;;;5037360;28;20064;-76
2022/04/21 07:02:41;;;;;;;2.00;0.88;;;11.10;99.90;;;;;;5038479;28;20672;-76
2022/04/21 07:05:12;;;;;;;1.88;0.75;;;11.30;99.90;;;;;;5038862;28;20044;-76
2022/04/21 07:07:42;;;;;;;1.92;0.60;;;11.40;99.90;;;;;;5040167;28;20031;-76
2022/04/21 07:10:09;;;;;;;1.58;0.75;;;11.50;99.90;;;;;;5022070;28;20041;-76
2022/04/21 07:12:34;;;;;;;1.88;0.90;;;11.60;99.90;;;;;;5038606;28;20110;-76
2022/04/21 07:15:03;;;;;;;2.13;0.70;;;11.80;99.90;;;;;;5038355;28;20037;-76
2022/04/21 07:17:29;;;;;;;1.55;0.60;;;11.90;99.90;;;;;;5022964;28;20098;-76
2022/04/21 07:19:54;;;;;;;1.52;0.60;;;12.10;99.90;;;;;;5022786;28;20040;-76
2022/04/21 07:22:21;;;;;;;3.28;0.70;;;12.30;99.90;;;;;;5038627;28;20029;-76
2022/04/21 07:24:49;;;;;;;1.40;0.60;;;12.50;99.90;;;;;;5020743;28;20032;-76
2022/04/21 07:27:15;;;;;;;1.38;0.40;;;12.60;99.90;;;;;;5037682;28;20057;-76
2022/04/21 07:29:41;;;;;;;2.05;0.50;;;12.90;99.90;;;;;;5037999;28;20660;-76
2022/04/21 07:32:07;;;;;;;1.00;0.40;;;13.00;99.90;;;;;;5037521;28;20029;-76
2022/04/21 07:34:34;;;;;;;0.80;0.40;;;13.10;99.90;;;;;;5031400;28;20028;-76
2022/04/21 07:36:59;;;;;;;1.52;0.50;;;13.20;99.90;;;;;;5037118;28;20033;-77
2022/04/21 07:39:25;;;;;;;2.75;0.50;;;13.30;99.90;;;;;;5038183;28;20045;-77
2022/04/21 07:41:51;;;;;;;1.33;0.47;;;13.40;99.90;;;;;;5021137;28;20036;-77
2022/04/21 07:44:17;;;;;;;1.30;0.40;;;13.40;99.90;;;;;;5039532;28;20169;-76
2022/04/21 07:46:43;;;;;;;1.17;0.40;;;13.60;99.90;;;;;;5037957;28;20037;-77
2022/04/21 07:53:12;;;;;;;0.90;0.40;;;13.50;99.90;;;;;;5053799;28;20040;-77
2022/04/21 07:54:38;;;;;;;1.20;0.30;;;13.70;99.90;;;;;;5037220;28;20707;-77
2022/04/21 07:57:04;;;;;;;1.70;0.30;;;14.00;99.90;;;;;;5037155;28;20321;-77
2022/04/21 07:59:29;;;;;;;0.70;0.30;;;14.20;99.90;;;;;;5039182;28;20029;-77
2022/04/21 08:01:56;;;;;;;1.23;0.40;;;14.20;99.90;;;;;;5036420;28;20028;-77
2022/04/21 08:04:22;;;;;;;1.20;0.43;;;14.20;99.90;;;;;;5037024;28;20667;-77
2022/04/21 08:06:48;;;;;;;1.17;0.30;;;14.40;99.90;;;;;;5037309;28;20040;-77
2022/04/21 08:09:14;;;;;;;1.15;0.28;;;14.50;99.90;;;;;;5014433;28;20069;-77
2022/04/21 08:11:40;;;;;;;0.93;0.30;;;14.50;99.90;;;;;;5020346;28;20033;-76
2022/04/21 08:14:05;;;;;;;0.95;0.30;;;14.50;99.90;;;;;;5036812;28;20032;-77
2022/04/21 08:16:32;;;;;;;1.83;0.40;;;14.50;99.90;;;;;;5020809;28;20021;-77
2022/04/21 08:19:00;;;;;;;1.23;0.30;;;14.70;99.90;;;;;;5021771;28;20147;-77
2022/04/21 08:21:26;;;;;;;1.45;0.32;;;14.70;99.90;;;;;;5037599;28;20033;-77
2022/04/21 08:23:52;;;;;;;1.00;0.30;;;14.80;99.90;;;;;;5036528;28;20029;-77
2022/04/21 08:34:30;;;;;;;1.25;0.30;;;15.30;99.90;;;;;;5037955;28;20082;-77
2022/04/21 08:36:56;;;;;;;0.82;0.30;;;15.30;99.90;;;;;;5038238;28;20133;-77
2022/04/21 08:39:22;;;;;;;1.00;0.35;;;15.20;99.90;;;;;;5030757;28;20048;-77
2022/04/21 08:41:49;;;;;;;1.20;0.30;;;14.90;99.90;;;;;;5003190;28;20044;-77
2022/04/21 08:44:21;;;;;;;1.85;0.30;;;15.10;99.90;;;;;;5036629;28;20029;-78
2022/04/21 08:46:50;;;;;;;0.77;0.30;;;15.10;99.90;;;;;;5036764;28;20760;-77
2022/04/21 08:49:19;;;;;;;0.52;0.20;;;15.50;99.90;;;;;;5031000;28;20043;-77
2022/04/21 08:51:45;;;;;;;1.38;0.30;;;15.30;99.90;;;;;;5038481;28;20033;-78
2022/04/21 08:54:10;;;;;;;2.55;0.20;;;15.70;99.90;;;;;;5053159;28;20029;-77
2022/04/21 08:56:36;;;;;;;0.57;0.20;;;15.60;99.90;;;;;;5037951;28;20050;-76
2022/04/21 08:59:02;;;;;;;0.93;0.20;;;15.90;99.90;;;;;;5052803;28;20521;-77
2022/04/21 09:01:28;;;;;;;0.40;0.20;;;16.00;99.90;;;;;;5035635;28;20032;-77
2022/04/21 09:03:53;;;;;;;0.57;0.20;;;15.90;99.90;;;;;;5035593;28;20037;-77
2022/04/21 09:06:22;;;;;;;0.70;0.30;;;16.00;99.90;;;;;;5036932;28;20021;-77
2022/04/21 09:09:12;;;;;;;1.05;0.20;;;16.00;99.90;;;;;;5052036;28;20037;-77
2022/04/21 09:11:37;;;;;;;0.90;0.20;;;16.00;99.90;;;;;;5030698;28;20098;-77
2022/04/21 09:14:03;;;;;;;1.65;0.20;;;16.20;99.90;;;;;;5037054;28;20037;-77
2022/04/21 09:16:33;;;;;;;0.60;0.20;;;16.50;99.90;;;;;;5037179;28;20043;-78
2022/04/21 09:19:02;;;;;;;1.67;0.30;;;16.20;99.90;;;;;;5035553;28;20036;-78
2022/04/21 09:21:35;;;;;;;0.80;0.30;;;16.30;99.90;;;;;;5037624;28;20179;-77
2022/04/21 09:24:17;;;;;;;0.70;0.22;;;16.40;99.90;;;;;;5035435;28;20028;-77
2022/04/21 09:26:45;;;;;;;1.60;0.20;;;16.30;99.90;;;;;;5018562;28;20024;-77
2022/04/21 09:29:21;;;;;;;0.60;0.20;;;16.10;99.90;;;;;;5035131;28;20451;-77
2022/04/21 09:31:46;;;;;;;0.70;0.10;;;16.30;99.90;;;;;;5035045;28;20028;-77
2022/04/21 09:34:12;;;;;;;2.15;0.20;;;16.50;99.90;;;;;;5042637;28;20025;-79
2022/04/21 09:36:38;;;;;;;0.60;0.20;;;16.50;99.90;;;;;;5018880;28;20405;-77
2022/04/21 09:39:04;;;;;;;1.25;0.30;;;16.30;99.90;;;;;;5037185;28;20033;-77
2022/04/21 09:41:30;;;;;;;0.40;0.20;;;16.50;99.90;;;;;;5036837;28;20033;-78
2022/04/21 09:46:50;;;;;;;0.60;0.20;;;16.90;99.90;;;;;;5037051;28;20559;-77
2022/04/21 09:49:36;;;;;;;1.08;0.20;;;16.70;99.90;;;;;;5037570;28;20037;-77
2022/04/21 09:52:02;;;;;;;0.80;0.30;;;16.60;99.90;;;;;;5031719;28;20029;-77
2022/04/21 09:54:31;;;;;;;1.10;0.28;;;16.40;99.90;;;;;;5036548;28;20041;-77
2022/04/21 09:56:58;;;;;;;1.40;0.20;;;16.90;99.90;;;;;;5033763;28;20120;-78
2022/04/21 09:59:24;;;;;;;1.52;0.20;;;16.70;99.90;;;;;;5035791;28;20033;-77
2022/04/21 10:01:50;;;;;;;1.23;0.30;;;16.70;99.90;;;;;;5035329;28;20036;-77
2022/04/21 10:04:20;;;;;;;0.60;0.20;;;16.60;99.90;;;;;;5009281;28;20116;-77
2022/04/21 10:06:47;;;;;;;0.80;0.28;;;16.90;99.90;;;;;;5037457;28;20091;-77
2022/04/21 10:09:14;;;;;;;0.65;0.28;;;17.00;99.90;;;;;;5019426;28;20102;-77
2022/04/21 10:11:42;;;;;;;0.68;0.20;;;16.80;99.90;;;;;;5035675;28;20044;-78
2022/04/21 10:14:12;;;;;;;0.70;0.20;;;16.90;99.90;;;;;;5033762;28;20435;-77
2022/04/21 10:16:39;;;;;;;0.55;0.20;;;17.20;99.60;;;;;;5036031;28;20028;-77
2022/04/21 10:19:05;;;;;;;0.75;0.30;;;17.50;99.60;;;;;;5035248;28;20033;-78
2022/04/21 10:22:03;;;;;;;1.02;0.20;;;17.30;99.30;;;;;;5031765;28;20439;-79
2022/04/21 10:24:32;;;;;;;0.70;0.20;;;17.80;99.90;;;;;;5034403;28;20041;-78
2022/04/21 10:26:58;;;;;;;1.38;0.20;;;17.80;98.60;;;;;;5022476;28;20039;-77
2022/04/21 10:29:27;;;;;;;0.75;0.10;;;17.90;98.80;;;;;;5037328;28;20033;-78
2022/04/21 10:31:58;;;;;;;0.80;0.20;;;18.20;99.10;;;;;;5038737;28;20094;-78
2022/04/21 10:34:32;;;;;;;0.45;0.10;;;17.70;99.10;;;;;;5016273;28;20033;-79
2022/04/21 10:37:12;;;;;;;0.65;0.20;;;17.90;98.50;;;;;;5039884;28;20052;-79
2022/04/21 10:39:37;;;;;;;;;;;18.60;98.90;;;;;;5039732;28;20039;-77
2022/04/21 10:42:21;;;;;;;0.70;0.30;;;18.30;98.10;;;;;;5040327;28;19912;-77
2022/04/21 10:44:52;;;;;;;1.60;0.30;;;18.00;98.00;;;;;;5033065;28;20120;-78
2022/04/21 10:47:35;;;;;;;0.60;0.20;;;17.80;97.90;;;;;;5023458;28;20048;-78
2022/04/21 10:50:11;;;;;;;1.77;0.20;;;17.50;98.40;;;;;;5039047;28;20052;-78
2022/04/21 10:58:34;;;;;;;0.93;0.10;;;18.40;97.50;;;;;;5054354;28;20060;-78
2022/04/21 11:01:07;;;;;;;0.80;0.20;;;18.40;96.80;;;;;;5038244;28;20553;-78
2022/04/21 11:03:33;;;;;;;0.70;0.20;;;17.90;96.40;;;;;;5018908;28;20033;-78
2022/04/21 11:06:09;;;;;;;0.50;0.20;;;18.00;97.00;;;;;;5039044;28;20659;-78
2022/04/21 11:08:35;;;;;;;0.80;0.20;;;17.70;96.50;;;;;;5021812;28;20146;-78
2022/04/21 11:11:02;;;;;;;0.82;0.22;;;17.70;97.30;;;;;;5032774;28;20068;-77
2022/04/21 11:13:51;;;;;;;0.55;0.17;;;17.40;96.50;;;;;;5039095;28;20032;-78
2022/04/21 11:16:41;;;;;;;0.57;0.20;;;17.50;96.70;;;;;;5037434;28;20377;-78
2022/04/21 11:19:52;;;;;;;0.60;0.20;;;17.40;96.80;;;;;;5037668;28;20039;-78
2022/04/21 11:22:41;;;;;;;0.80;0.10;;;17.20;96.60;;;;;;4997741;28;20030;-78
2022/04/21 11:25:08;;;;;;;0.40;0.20;;;18.00;97.20;;;;;;4981610;28;20034;-77
2022/04/21 11:27:39;;;;;;;0.80;0.20;;;18.10;96.50;;;;;;4963952;28;20037;-78
2022/04/21 11:30:08;;;;;;;0.60;0.20;;;18.10;96.60;;;;;;4997713;28;20066;-78
2022/04/21 11:32:33;;;;;;;0.43;0.20;;;18.20;96.40;;;;;;4980978;28;20040;-78
2022/04/21 11:35:05;;;;;;;0.60;0.20;;;18.20;96.10;;;;;;4997189;28;20034;-78
2022/04/21 11:37:44;;;;;;;0.73;0.10;;;18.10;95.70;;;;;;4965029;28;20068;-77
2022/04/21 11:40:19;;;;;;;0.82;0.20;;;18.50;95.70;;;;;;4964697;28;20022;-78
2022/04/21 11:42:46;;;;;;;0.63;0.20;;;17.90;95.20;;;;;;4980851;28;20390;-78
2022/04/21 11:45:20;;;;;;;0.65;0.20;;;18.00;96.10;;;;;;4981175;28;20142;-78
2022/04/21 11:47:46;;;;;;;0.63;0.20;;;18.40;96.30;;;;;;4980325;28;20037;-77
2022/04/21 11:50:21;;;;;;;1.00;0.25;;;18.80;96.40;;;;;;4997077;28;20054;-78
2022/04/21 11:52:52;;;;;;;1.42;0.28;;;19.20;95.40;;;;;;4976260;28;20033;-78
2022/04/21 11:55:25;;;;;;;0.70;0.20;;;19.40;95.40;;;;;;5002027;28;20049;-78
2022/04/21 11:57:51;;;;;;;0.57;0.20;;;19.50;94.80;;;;;;5038030;28;20095;-78
2022/04/21 12:06:27;;;;;;;1.17;0.40;;;19.20;95.40;;;;;;5021442;28;20029;-78
2022/04/21 12:08:50;;;;;;;0.85;0.30;;;19.70;95.20;;;;;;5017845;28;20583;-77
2022/04/21 12:11:21;;;;;;;1.08;0.30;;;19.30;95.50;;;;;;5018186;28;20084;-77
2022/04/21 12:13:48;;;;;;;1.13;0.30;;;19.20;95.60;;;;;;5015151;28;20091;-77
2022/04/21 12:16:38;;;;;;;0.63;0.20;;;19.40;95.80;;;;;;5032304;28;20044;-78
2022/04/21 12:19:19;;;;;;;0.82;0.30;;;19.30;96.70;;;;;;5015744;28;20031;-79
2022/04/21 12:22:01;;;;;;;1.33;0.50;;;19.20;96.80;;;;;;5019311;28;20053;-77
2022/04/21 12:24:32;;;;;;;2.17;0.30;;;19.20;96.90;;;;;;4998287;28;20032;-79
2022/04/21 12:27:00;;;;;;;1.05;0.30;;;19.30;97.20;;;;;;5035368;28;20071;-77
2022/04/21 12:29:29;;;;;;;0.68;0.30;;;19.30;96.50;;;;;;5035632;28;20939;-78
2022/04/21 12:31:56;;;;;;;1.60;0.40;;;19.40;96.80;;;;;;5035109;28;20072;-78
2022/04/21 12:34:30;;;;;;;1.23;0.30;;;18.80;96.60;;;;;;5001928;28;20041;-77
2022/04/21 12:37:01;;;;;;;1.50;0.20;;;18.80;97.10;;;;;;5034303;28;20136;-78
2022/04/21 12:39:29;;;;;;;1.00;0.30;;;19.10;96.80;;;;;;5004968;28;20091;-77
2022/04/21 12:41:56;;;;;;;1.10;0.40;;;18.70;97.00;;;;;;5036702;28;20033;-77
2022/04/21 12:44:24;;;;;;;0.73;0.30;;;18.30;97.10;;;;;;5003571;28;20056;-77
2022/04/21 12:47:15;;;;;;;1.17;0.32;;;18.10;97.80;;;;;;5030177;28;20032;-80
2022/04/21 12:50:08;;;;;;;1.17;0.50;;;18.80;97.90;;;;;;5037425;28;20702;-78
2022/04/21 12:52:36;;;;;;;1.48;0.52;;;18.80;97.70;;;;;;5036486;28;21061;-79
2022/04/21 12:55:07;;;;;;;0.90;0.30;;;19.10;97.80;;;;;;5036647;28;20037;-77
2022/04/21 12:57:33;;;;;;;1.05;0.30;;;18.90;98.00;;;;;;5036786;28;20072;-78
2022/04/21 12:59:59;;;;;;;0.90;0.40;;;18.80;97.80;;;;;;5035771;28;20036;-76
2022/04/21 13:02:25;;;;;;;1.50;0.60;;;18.70;97.70;;;;;;5038300;28;20040;-78
2022/04/21 13:04:50;;;;;;;1.60;0.43;;;19.10;97.70;;;;;;5036951;28;20041;-78
2022/04/21 13:07:16;;;;;;;1.67;0.50;;;19.20;97.80;;;;;;5037978;28;20025;-78
2022/04/21 13:09:41;;;;;;;1.13;0.40;;;19.30;97.60;;;;;;5035538;28;20036;-76
2022/04/21 13:12:08;;;;;;;1.33;0.50;;;19.00;97.50;;;;;;5037286;28;20063;-78
2022/04/21 13:14:33;;;;;;;2.75;0.50;;;18.90;97.80;;;;;;5036090;28;20040;-77
2022/04/21 13:17:00;;;;;;;1.63;0.50;;;18.80;97.40;;;;;;5037998;28;20041;-78
2022/04/21 13:19:25;;;;;;;0.80;0.30;;;19.10;97.50;;;;;;5037321;28;20032;-78
2022/04/21 13:21:55;;;;;;;1.98;0.30;;;19.80;97.80;;;;;;5034018;28;20133;-77
2022/04/21 13:24:25;;;;;;;0.80;0.30;;;19.60;97.60;;;;;;5029807;28;20069;-77
2022/04/21 13:26:56;;;;;;;0.90;0.30;;;19.50;98.30;;;;;;5037132;28;20112;-78
2022/04/21 13:29:21;;;;;;;1.70;0.28;;;19.40;98.30;;;;;;5037330;28;20083;-78
2022/04/21 13:34:32;;;;;;;1.17;0.30;;;19.10;98.20;;;;;;5037383;28;20043;-77
2022/04/21 13:36:59;;;;;;;0.82;0.28;;;19.00;98.70;;;;;;5036373;28;20389;-78
2022/04/21 13:39:24;;;;;;;2.15;0.30;;;19.20;99.00;;;;;;5037062;28;20340;-78
2022/04/21 13:41:50;;;;;;;1.23;0.30;;;19.40;99.00;;;;;;5052216;28;20333;-78
2022/04/21 13:44:16;;;;;;;2.33;0.30;;;19.20;98.90;;;;;;5037140;28;20029;-78
2022/04/21 13:46:42;;;;;;;0.60;0.30;;;19.30;98.90;;;;;;5036737;28;20047;-79
2022/04/21 13:49:09;;;;;;;0.90;0.30;;;19.20;99.50;;;;;;5051291;28;20043;-78
2022/04/21 13:51:39;;;;;;;1.75;0.32;;;18.90;99.00;;;;;;5036557;28;20037;-77
2022/04/21 13:54:05;;;;;;;1.98;0.30;;;18.90;99.80;;;;;;5052392;28;20063;-78
2022/04/21 13:56:32;;;;;;;0.93;0.40;;;18.80;99.50;;;;;;5038103;28;20465;-78